sensor_id;sensor_type;location;lat;lon;timestamp;pressure;altitude;pressure_sealevel;temperature;humidity
23229;BME280;11783;50.350;6.576;2022-09-09T00:00:16;95668.59;;;14.08;100.00
23229;BME280;11783;50.350;6.576;2022-09-09T00:03:10;95666.44;;;14.15;100.00
23229;BME280;11783;50.350;6.576;2022-09-09T00:08:52;95667.47;;;14.19;100.00
23229;BME280;11783;50.350;6.576;2022-09-09T00:11:20;95662.16;;;14.14;100.00
23229;BME280;11783;50.350;6.576;2022-09-09T00:13:52;95666.72;;;14.13;100.00
23229;BME280;11783;50.350;6.576;2022-09-09T00:16:22;95669.28;;;14.23;100.00
23229;BME280;11783;50.350;6.576;2022-09-09T00:19:02;95668.78;;;14.21;100.00
23229;BME280;11783;50.350;6.576;2022-09-09T00:21:35;95672.75;;;14.24;100.00
23229;BME280;11783;50.350;6.576;2022-09-09T00:24:09;95673.78;;;14.28;100.00
23229;BME280;11783;50.350;6.576;2022-09-09T00:29:14;95669.25;;;14.29;100.00
23229;BME280;11783;50.350;6.576;2022-09-09T00:31:44;95669.28;;;14.23;100.00
23229;BME280;11783;50.350;6.576;2022-09-09T00:34:20;95668.97;;;14.30;100.00
23229;BME280;11783;50.350;6.576;2022-09-09T00:36:49;95665.81;;;14.23;100.00
23229;BME280;11783;50.350;6.576;2022-09-09T00:39:41;95664.66;;;14.34;100.00
23229;BME280;11783;50.350;6.576;2022-09-09T00:42:17;95661.94;;;14.44;100.00
23229;BME280;11783;50.350;6.576;2022-09-09T00:45:02;95676.19;;;14.30;100.00
23229;BME280;11783;50.350;6.576;2022-09-09T00:47:45;95672.69;;;14.34;100.00
23229;BME280;11783;50.350;6.576;2022-09-09T00:56:16;95680.72;;;14.34;100.00
23229;BME280;11783;50.350;6.576;2022-09-09T00:59:01;95680.44;;;14.31;100.00
23229;BME280;11783;50.350;6.576;2022-09-09T01:01:32;95669.56;;;14.22;100.00
23229;BME280;11783;50.350;6.576;2022-09-09T01:03:57;95672.44;;;14.31;100.00
23229;BME280;11783;50.350;6.576;2022-09-09T01:06:35;95666.38;;;14.20;100.00
23229;BME280;11783;50.350;6.576;2022-09-09T01:11:57;95657.94;;;14.03;100.00
23229;BME280;11783;50.350;6.576;2022-09-09T01:17:05;95672.00;;;14.18;100.00
23229;BME280;11783;50.350;6.576;2022-09-09T01:19:50;95668.59;;;14.08;100.00
23229;BME280;11783;50.350;6.576;2022-09-09T01:28:19;95650.91;;;14.17;100.00
23229;BME280;11783;50.350;6.576;2022-09-09T01:30:47;95650.94;;;14.12;100.00
23229;BME280;11783;50.350;6.576;2022-09-09T01:33:16;95649.53;;;14.19;100.00
23229;BME280;11783;50.350;6.576;2022-09-09T01:35:50;95656.78;;;14.19;100.00
23229;BME280;11783;50.350;6.576;2022-09-09T01:38:19;95662.97;;;14.14;100.00
23229;BME280;11783;50.350;6.576;2022-09-09T01:40:45;95663.19;;;14.18;100.00
23229;BME280;11783;50.350;6.576;2022-09-09T01:43:11;95666.91;;;14.22;100.00
23229;BME280;11783;50.350;6.576;2022-09-09T01:45:38;95660.47;;;14.23;100.00
23229;BME280;11783;50.350;6.576;2022-09-09T01:48:05;95655.59;;;14.30;100.00
23229;BME280;11783;50.350;6.576;2022-09-09T01:50:32;95661.72;;;14.31;100.00
23229;BME280;11783;50.350;6.576;2022-09-09T01:52:58;95656.94;;;14.33;100.00
23229;BME280;11783;50.350;6.576;2022-09-09T01:55:40;95663.34;;;14.32;100.00
23229;BME280;11783;50.350;6.576;2022-09-09T02:00:36;95663.09;;;14.28;100.00
23229;BME280;11783;50.350;6.576;2022-09-09T02:03:09;95647.31;;;14.32;100.00
23229;BME280;11783;50.350;6.576;2022-09-09T02:08:43;95653.97;;;14.34;100.00
23229;BME280;11783;50.350;6.576;2022-09-09T02:11:14;95641.63;;;14.38;100.00
23229;BME280;11783;50.350;6.576;2022-09-09T02:13:40;95656.94;;;14.28;100.00
23229;BME280;11783;50.350;6.576;2022-09-09T02:21:13;95643.91;;;14.21;100.00
23229;BME280;11783;50.350;6.576;2022-09-09T02:23:41;95651.31;;;14.29;100.00
23229;BME280;11783;50.350;6.576;2022-09-09T02:26:07;95656.19;;;14.22;100.00
23229;BME280;11783;50.350;6.576;2022-09-09T02:28:34;95656.78;;;14.19;100.00
23229;BME280;11783;50.350;6.576;2022-09-09T02:31:02;95651.72;;;14.17;100.00
23229;BME280;11783;50.350;6.576;2022-09-09T02:33:33;95652.97;;;14.25;100.00
23229;BME280;11783;50.350;6.576;2022-09-09T02:36:01;95642.31;;;14.20;100.00
23229;BME280;11783;50.350;6.576;2022-09-09T02:38:31;95645.00;;;14.20;100.00
23229;BME280;11783;50.350;6.576;2022-09-09T02:40:58;95644.47;;;14.18;100.00
23229;BME280;11783;50.350;6.576;2022-09-09T02:43:24;95624.66;;;14.24;100.00
23229;BME280;11783;50.350;6.576;2022-09-09T02:48:42;95628.41;;;14.23;100.00
23229;BME280;11783;50.350;6.576;2022-09-09T02:51:24;95639.88;;;14.23;100.00
23229;BME280;11783;50.350;6.576;2022-09-09T02:53:59;95630.50;;;14.26;100.00
23229;BME280;11783;50.350;6.576;2022-09-09T02:56:32;95634.88;;;14.17;100.00
23229;BME280;11783;50.350;6.576;2022-09-09T02:59:04;95635.44;;;14.09;100.00
23229;BME280;11783;50.350;6.576;2022-09-09T03:01:30;95638.13;;;14.09;100.00
23229;BME280;11783;50.350;6.576;2022-09-09T03:03:55;95634.88;;;14.17;100.00
23229;BME280;11783;50.350;6.576;2022-09-09T03:06:20;95621.00;;;14.15;100.00
23229;BME280;11783;50.350;6.576;2022-09-09T03:08:46;95624.47;;;14.15;100.00
23229;BME280;11783;50.350;6.576;2022-09-09T03:11:12;95626.06;;;14.11;100.00
23229;BME280;11783;50.350;6.576;2022-09-09T03:13:39;95638.84;;;14.19;100.00
23229;BME280;11783;50.350;6.576;2022-09-09T03:16:04;95634.66;;;14.08;100.00
23229;BME280;11783;50.350;6.576;2022-09-09T03:18:30;95637.09;;;14.05;100.00
23229;BME280;11783;50.350;6.576;2022-09-09T03:20:57;95642.91;;;14.12;100.00
23229;BME280;11783;50.350;6.576;2022-09-09T03:23:23;95641.84;;;14.13;100.00
23229;BME280;11783;50.350;6.576;2022-09-09T03:25:49;95636.22;;;14.14;100.00
23229;BME280;11783;50.350;6.576;2022-09-09T03:28:15;95631.81;;;14.00;100.00
23229;BME280;11783;50.350;6.576;2022-09-09T03:30:40;95641.38;;;14.06;100.00
23229;BME280;11783;50.350;6.576;2022-09-09T03:33:06;95639.75;;;14.05;100.00
23229;BME280;11783;50.350;6.576;2022-09-09T03:35:31;95639.75;;;14.05;100.00
23229;BME280;11783;50.350;6.576;2022-09-09T03:37:56;95645.38;;;14.03;100.00
23229;BME280;11783;50.350;6.576;2022-09-09T03:40:22;95629.97;;;13.95;100.00
23229;BME280;11783;50.350;6.576;2022-09-09T03:42:47;95636.31;;;13.65;100.00
23229;BME280;11783;50.350;6.576;2022-09-09T03:45:14;95628.81;;;13.67;100.00
23229;BME280;11783;50.350;6.576;2022-09-09T03:47:39;95622.91;;;13.70;100.00
23229;BME280;11783;50.350;6.576;2022-09-09T03:50:06;95633.59;;;13.70;100.00
23229;BME280;11783;50.350;6.576;2022-09-09T03:52:38;95631.44;;;13.72;100.00
23229;BME280;11783;50.350;6.576;2022-09-09T03:55:05;95634.66;;;13.69;100.00
23229;BME280;11783;50.350;6.576;2022-09-09T03:57:31;95629.59;;;13.68;100.00
23229;BME280;11783;50.350;6.576;2022-09-09T03:59:57;95624.00;;;13.69;100.00
23229;BME280;11783;50.350;6.576;2022-09-09T04:02:23;95621.03;;;13.71;100.00
23229;BME280;11783;50.350;6.576;2022-09-09T04:04:48;95625.63;;;13.65;100.00
23229;BME280;11783;50.350;6.576;2022-09-09T04:07:13;95630.69;;;13.67;100.00
23229;BME280;11783;50.350;6.576;2022-09-09T04:09:39;95634.38;;;13.71;100.00
23229;BME280;11783;50.350;6.576;2022-09-09T04:12:04;95618.09;;;13.72;100.00
23229;BME280;11783;50.350;6.576;2022-09-09T04:14:31;95624.50;;;13.71;100.00
23229;BME280;11783;50.350;6.576;2022-09-09T04:16:56;95626.31;;;13.81;100.00
23229;BME280;11783;50.350;6.576;2022-09-09T04:19:22;95625.19;;;13.87;100.00
23229;BME280;11783;50.350;6.576;2022-09-09T04:21:47;95621.69;;;13.91;100.00
23229;BME280;11783;50.350;6.576;2022-09-09T04:24:15;95620.66;;;13.87;100.00
23229;BME280;11783;50.350;6.576;2022-09-09T04:26:41;95629.41;;;13.93;100.00
23229;BME280;11783;50.350;6.576;2022-09-09T04:29:06;95629.41;;;13.98;100.00
23229;BME280;11783;50.350;6.576;2022-09-09T04:31:32;95627.50;;;14.04;100.00
23229;BME280;11783;50.350;6.576;2022-09-09T04:33:57;95630.19;;;13.99;100.00
23229;BME280;11783;50.350;6.576;2022-09-09T04:36:22;95633.06;;;14.07;100.00
23229;BME280;11783;50.350;6.576;2022-09-09T04:38:48;95637.44;;;13.98;100.00
23229;BME280;11783;50.350;6.576;2022-09-09T04:41:14;95640.38;;;13.97;100.00
23229;BME280;11783;50.350;6.576;2022-09-09T04:43:41;95638.47;;;14.02;100.00
23229;BME280;11783;50.350;6.576;2022-09-09T04:46:07;95639.25;;;14.03;100.00
23229;BME280;11783;50.350;6.576;2022-09-09T04:48:32;95632.31;;;14.02;100.00
23229;BME280;11783;50.350;6.576;2022-09-09T04:51:02;95637.94;;;14.00;100.00
23229;BME280;11783;50.350;6.576;2022-09-09T04:53:30;95633.41;;;14.01;100.00
23229;BME280;11783;50.350;6.576;2022-09-09T04:56:12;95639.31;;;13.92;100.00
23229;BME280;11783;50.350;6.576;2022-09-09T04:58:39;95652.16;;;13.90;100.00
23229;BME280;11783;50.350;6.576;2022-09-09T05:01:11;95652.38;;;13.99;100.00
23229;BME280;11783;50.350;6.576;2022-09-09T05:03:37;95645.19;;;13.94;100.00
23229;BME280;11783;50.350;6.576;2022-09-09T05:06:11;95653.72;;;13.97;100.00
23229;BME280;11783;50.350;6.576;2022-09-09T05:08:37;95647.31;;;13.98;100.00
23229;BME280;11783;50.350;6.576;2022-09-09T05:11:16;95651.06;;;13.97;100.00
23229;BME280;11783;50.350;6.576;2022-09-09T05:13:42;95644.66;;;13.92;100.00
23229;BME280;11783;50.350;6.576;2022-09-09T05:16:08;95644.13;;;13.96;100.00
23229;BME280;11783;50.350;6.576;2022-09-09T05:18:35;95644.84;;;14.06;100.00
23229;BME280;11783;50.350;6.576;2022-09-09T05:21:02;95653.06;;;14.10;100.00
23229;BME280;11783;50.350;6.576;2022-09-09T05:23:27;95646.19;;;14.04;100.00
23229;BME280;11783;50.350;6.576;2022-09-09T05:25:59;95649.38;;;14.06;100.00
23229;BME280;11783;50.350;6.576;2022-09-09T05:28:26;95643.00;;;14.02;100.00
23229;BME280;11783;50.350;6.576;2022-09-09T05:31:10;95655.06;;;13.94;100.00
23229;BME280;11783;50.350;6.576;2022-09-09T05:33:38;95656.78;;;13.80;100.00
23229;BME280;11783;50.350;6.576;2022-09-09T05:36:07;95650.59;;;13.84;100.00
23229;BME280;11783;50.350;6.576;2022-09-09T05:38:34;95637.75;;;13.86;100.00
23229;BME280;11783;50.350;6.576;2022-09-09T05:41:00;95640.19;;;13.83;100.00
23229;BME280;11783;50.350;6.576;2022-09-09T05:43:26;95633.81;;;13.79;100.00
23229;BME280;11783;50.350;6.576;2022-09-09T05:46:01;95654.13;;;13.75;100.00
23229;BME280;11783;50.350;6.576;2022-09-09T05:48:34;95650.44;;;13.66;100.00
23229;BME280;11783;50.350;6.576;2022-09-09T05:51:00;95651.44;;;13.80;100.00
23229;BME280;11783;50.350;6.576;2022-09-09T05:53:27;95645.53;;;13.83;100.00
23229;BME280;11783;50.350;6.576;2022-09-09T05:56:03;95653.56;;;13.83;100.00
23229;BME280;11783;50.350;6.576;2022-09-09T05:58:33;95647.66;;;13.86;100.00
23229;BME280;11783;50.350;6.576;2022-09-09T06:01:06;95646.25;;;13.93;100.00
23229;BME280;11783;50.350;6.576;2022-09-09T06:03:36;95648.69;;;13.90;100.00
23229;BME280;11783;50.350;6.576;2022-09-09T06:06:04;95643.38;;;13.85;100.00
23229;BME280;11783;50.350;6.576;2022-09-09T06:08:34;95643.06;;;13.91;100.00
23229;BME280;11783;50.350;6.576;2022-09-09T06:11:08;95649.97;;;13.98;100.00
23229;BME280;11783;50.350;6.576;2022-09-09T06:13:34;95645.97;;;14.00;100.00
23229;BME280;11783;50.350;6.576;2022-09-09T06:16:02;95641.22;;;13.87;100.00
23229;BME280;11783;50.350;6.576;2022-09-09T06:18:27;95640.16;;;13.88;100.00
23229;BME280;11783;50.350;6.576;2022-09-09T06:21:05;95649.19;;;13.92;100.00
23229;BME280;11783;50.350;6.576;2022-09-09T06:23:31;95642.53;;;13.94;100.00
23229;BME280;11783;50.350;6.576;2022-09-09T06:26:09;95647.81;;;14.00;100.00
23229;BME280;11783;50.350;6.576;2022-09-09T06:28:36;95629.66;;;14.02;100.00
23229;BME280;11783;50.350;6.576;2022-09-09T06:31:04;95636.06;;;14.01;100.00
23229;BME280;11783;50.350;6.576;2022-09-09T06:33:34;95642.22;;;14.01;100.00
23229;BME280;11783;50.350;6.576;2022-09-09T06:36:00;95617.09;;;14.02;100.00
23229;BME280;11783;50.350;6.576;2022-09-09T06:38:26;95620.63;;;13.92;100.00
23229;BME280;11783;50.350;6.576;2022-09-09T06:40:58;95623.00;;;13.94;100.00
23229;BME280;11783;50.350;6.576;2022-09-09T06:43:24;95628.13;;;13.90;100.00
23229;BME280;11783;50.350;6.576;2022-09-09T06:45:57;95623.56;;;13.96;100.00
23229;BME280;11783;50.350;6.576;2022-09-09T06:48:23;95621.69;;;13.91;100.00
23229;BME280;11783;50.350;6.576;2022-09-09T06:50:51;95623.59;;;13.86;100.00
23229;BME280;11783;50.350;6.576;2022-09-09T06:53:17;95635.19;;;13.76;100.00
23229;BME280;11783;50.350;6.576;2022-09-09T06:55:44;95625.47;;;13.85;100.00
23229;BME280;11783;50.350;6.576;2022-09-09T06:58:10;95624.88;;;13.93;100.00
23229;BME280;11783;50.350;6.576;2022-09-09T07:00:35;95630.03;;;13.85;100.00
23229;BME280;11783;50.350;6.576;2022-09-09T07:03:03;95630.44;;;14.02;100.00
23229;BME280;11783;50.350;6.576;2022-09-09T07:05:29;95631.97;;;14.08;100.00
23229;BME280;11783;50.350;6.576;2022-09-09T07:07:54;95642.44;;;14.05;100.00
23229;BME280;11783;50.350;6.576;2022-09-09T07:10:20;95638.34;;;14.12;100.00
23229;BME280;11783;50.350;6.576;2022-09-09T07:12:50;95642.31;;;14.20;100.00
23229;BME280;11783;50.350;6.576;2022-09-09T07:15:16;95670.47;;;14.07;100.00
23229;BME280;11783;50.350;6.576;2022-09-09T07:17:43;95647.47;;;14.11;100.00
23229;BME280;11783;50.350;6.576;2022-09-09T07:20:09;95647.72;;;14.15;100.00
23229;BME280;11783;50.350;6.576;2022-09-09T07:22:34;95653.59;;;14.12;100.00
23229;BME280;11783;50.350;6.576;2022-09-09T07:24:59;95655.47;;;14.11;100.00
23229;BME280;11783;50.350;6.576;2022-09-09T07:27:24;95662.16;;;14.14;100.00
23229;BME280;11783;50.350;6.576;2022-09-09T07:29:50;95662.28;;;14.28;100.00
23229;BME280;11783;50.350;6.576;2022-09-09T07:32:16;95658.25;;;14.30;100.00
23229;BME280;11783;50.350;6.576;2022-09-09T07:34:42;95651.75;;;14.41;100.00
23229;BME280;11783;50.350;6.576;2022-09-09T07:37:08;95656.56;;;14.44;100.00
23229;BME280;11783;50.350;6.576;2022-09-09T07:39:36;95653.63;;;14.46;100.00
23229;BME280;11783;50.350;6.576;2022-09-09T07:42:01;95655.69;;;14.54;100.00
23229;BME280;11783;50.350;6.576;2022-09-09T07:44:27;95663.16;;;14.57;100.00
23229;BME280;11783;50.350;6.576;2022-09-09T07:46:53;95657.13;;;14.41;100.00
23229;BME280;11783;50.350;6.576;2022-09-09T07:49:18;95662.72;;;14.45;100.00
23229;BME280;11783;50.350;6.576;2022-09-09T07:51:46;95673.66;;;14.48;100.00
23229;BME280;11783;50.350;6.576;2022-09-09T07:54:14;95670.94;;;14.53;100.00
23229;BME280;11783;50.350;6.576;2022-09-09T07:56:40;95679.19;;;14.57;100.00
23229;BME280;11783;50.350;6.576;2022-09-09T07:59:07;95673.56;;;14.59;100.00
23229;BME280;11783;50.350;6.576;2022-09-09T08:01:51;95683.13;;;14.65;100.00
23229;BME280;11783;50.350;6.576;2022-09-09T08:04:21;95684.22;;;14.64;100.00
23229;BME280;11783;50.350;6.576;2022-09-09T08:06:53;95687.88;;;14.73;100.00
23229;BME280;11783;50.350;6.576;2022-09-09T08:09:20;95682.03;;;14.71;100.00
23229;BME280;11783;50.350;6.576;2022-09-09T08:11:46;95681.22;;;14.70;100.00
23229;BME280;11783;50.350;6.576;2022-09-09T08:14:12;95688.81;;;14.58;100.00
23229;BME280;11783;50.350;6.576;2022-09-09T08:16:44;95698.44;;;14.59;100.00
23229;BME280;11783;50.350;6.576;2022-09-09T08:19:10;95682.03;;;14.71;100.00
23229;BME280;11783;50.350;6.576;2022-09-09T08:21:38;95680.25;;;14.85;100.00
23229;BME280;11783;50.350;6.576;2022-09-09T08:24:05;95691.72;;;14.91;100.00
23229;BME280;11783;50.350;6.576;2022-09-09T08:26:36;95697.91;;;14.86;99.00
23229;BME280;11783;50.350;6.576;2022-09-09T08:29:04;95680.41;;;14.99;97.28
23229;BME280;11783;50.350;6.576;2022-09-09T08:31:41;95682.69;;;15.10;95.91
23229;BME280;11783;50.350;6.576;2022-09-09T08:34:08;95687.63;;;15.22;93.75
23229;BME280;11783;50.350;6.576;2022-09-09T08:36:36;95687.34;;;15.24;96.11
23229;BME280;11783;50.350;6.576;2022-09-09T08:39:04;95708.59;;;15.39;96.58
23229;BME280;11783;50.350;6.576;2022-09-09T08:49:57;95698.78;;;15.05;97.74
23229;BME280;11783;50.350;6.576;2022-09-09T08:53:04;95689.78;;;14.96;94.37
23229;BME280;11783;50.350;6.576;2022-09-09T08:55:50;95693.72;;;15.04;92.36
23229;BME280;11783;50.350;6.576;2022-09-09T08:58:23;95694.47;;;15.09;93.84
23229;BME280;11783;50.350;6.576;2022-09-09T09:01:09;95689.63;;;15.11;96.03
23229;BME280;11783;50.350;6.576;2022-09-09T09:09:52;95703.59;;;15.32;95.91
23229;BME280;11783;50.350;6.576;2022-09-09T09:12:25;95701.06;;;15.41;95.27
23229;BME280;11783;50.350;6.576;2022-09-09T09:14:52;95697.66;;;15.59;97.23
23229;BME280;11783;50.350;6.576;2022-09-09T09:17:19;95699.66;;;15.91;96.32
23229;BME280;11783;50.350;6.576;2022-09-09T09:19:47;95692.28;;;16.21;93.54
23229;BME280;11783;50.350;6.576;2022-09-09T09:22:22;95702.97;;;16.40;91.29
23229;BME280;11783;50.350;6.576;2022-09-09T09:24:56;95690.28;;;16.45;87.61
23229;BME280;11783;50.350;6.576;2022-09-09T09:27:40;95692.84;;;16.37;88.52
23229;BME280;11783;50.350;6.576;2022-09-09T09:30:17;95719.56;;;16.42;88.08
23229;BME280;11783;50.350;6.576;2022-09-09T09:32:58;95704.56;;;16.41;86.56
23229;BME280;11783;50.350;6.576;2022-09-09T09:35:25;95728.91;;;16.44;85.53
23229;BME280;11783;50.350;6.576;2022-09-09T09:37:50;95706.88;;;16.28;87.53
23229;BME280;11783;50.350;6.576;2022-09-09T09:40:18;95703.91;;;16.30;86.42
23229;BME280;11783;50.350;6.576;2022-09-09T09:42:56;95707.69;;;16.10;90.50
23229;BME280;11783;50.350;6.576;2022-09-09T09:45:41;95719.78;;;16.08;90.85
23229;BME280;11783;50.350;6.576;2022-09-09T09:48:11;95707.28;;;16.03;88.38
23229;BME280;11783;50.350;6.576;2022-09-09T09:50:49;95713.34;;;16.09;94.98
23229;BME280;11783;50.350;6.576;2022-09-09T09:53:25;95731.44;;;15.98;91.00
23229;BME280;11783;50.350;6.576;2022-09-09T09:55:58;95714.84;;;15.96;90.55
23229;BME280;11783;50.350;6.576;2022-09-09T09:58:25;95724.72;;;15.82;93.56
23229;BME280;11783;50.350;6.576;2022-09-09T10:00:52;95721.56;;;15.74;95.72
23229;BME280;11783;50.350;6.576;2022-09-09T10:03:31;95715.81;;;15.86;93.86
23229;BME280;11783;50.350;6.576;2022-09-09T10:05:57;95716.53;;;15.92;93.95
23229;BME280;11783;50.350;6.576;2022-09-09T10:08:26;95718.41;;;15.91;94.98
23229;BME280;11783;50.350;6.576;2022-09-09T10:13:34;95709.06;;;16.26;92.83
23229;BME280;11783;50.350;6.576;2022-09-09T10:24:42;95720.28;;;16.47;86.93
23229;BME280;11783;50.350;6.576;2022-09-09T10:32:42;95713.69;;;17.05;84.89
23229;BME280;11783;50.350;6.576;2022-09-09T10:37:53;95702.69;;;17.20;81.73
23229;BME280;11783;50.350;6.576;2022-09-09T10:40:59;95716.81;;;17.39;82.48
23229;BME280;11783;50.350;6.576;2022-09-09T10:49:24;95718.50;;;17.35;79.31
23229;BME280;11783;50.350;6.576;2022-09-09T10:54:41;95713.50;;;17.01;79.47
23229;BME280;11783;50.350;6.576;2022-09-09T10:57:25;95699.69;;;16.94;81.73
23229;BME280;11783;50.350;6.576;2022-09-09T10:59:55;95699.78;;;17.03;81.70
23229;BME280;11783;50.350;6.576;2022-09-09T11:02:28;95707.84;;;17.16;79.62
23229;BME280;11783;50.350;6.576;2022-09-09T11:05:02;95691.63;;;17.21;77.77
23229;BME280;11783;50.350;6.576;2022-09-09T11:07:47;95704.56;;;17.19;79.93
23229;BME280;11783;50.350;6.576;2022-09-09T11:10:30;95705.16;;;17.16;81.48
23229;BME280;11783;50.350;6.576;2022-09-09T11:13:03;95701.88;;;17.19;79.64
23229;BME280;11783;50.350;6.576;2022-09-09T11:15:42;95694.72;;;17.15;82.99
23229;BME280;11783;50.350;6.576;2022-09-09T11:18:15;95689.56;;;17.18;79.66
23229;BME280;11783;50.350;6.576;2022-09-09T11:20:45;95695.53;;;17.15;80.17
23229;BME280;11783;50.350;6.576;2022-09-09T11:23:20;95693.72;;;17.24;80.94
23229;BME280;11783;50.350;6.576;2022-09-09T11:25:53;95700.69;;;17.39;83.45
23229;BME280;11783;50.350;6.576;2022-09-09T11:28:58;95684.56;;;17.53;81.72
23229;BME280;11783;50.350;6.576;2022-09-09T11:31:43;95693.09;;;17.96;88.76
23229;BME280;11783;50.350;6.576;2022-09-09T11:34:27;95681.75;;;18.22;79.89
23229;BME280;11783;50.350;6.576;2022-09-09T11:42:33;95680.50;;;18.86;75.90
23229;BME280;11783;50.350;6.576;2022-09-09T11:45:09;95675.84;;;19.09;74.83
23229;BME280;11783;50.350;6.576;2022-09-09T11:47:36;95667.03;;;19.26;70.87
23229;BME280;11783;50.350;6.576;2022-09-09T11:53:26;95674.84;;;19.93;63.39
23229;BME280;11783;50.350;6.576;2022-09-09T11:56:09;95658.66;;;20.02;64.72
23229;BME280;11783;50.350;6.576;2022-09-09T12:01:44;95676.41;;;19.85;65.86
23229;BME280;11783;50.350;6.576;2022-09-09T12:06:52;95665.16;;;18.95;70.87
23229;BME280;11783;50.350;6.576;2022-09-09T12:09:27;95674.94;;;18.60;73.97
23229;BME280;11783;50.350;6.576;2022-09-09T12:14:37;95695.50;;;18.20;77.48
23229;BME280;11783;50.350;6.576;2022-09-09T12:17:30;95690.13;;;17.84;83.44
23229;BME280;11783;50.350;6.576;2022-09-09T12:22:51;95695.06;;;17.68;94.21
23229;BME280;11783;50.350;6.576;2022-09-09T12:30:39;95698.31;;;17.24;99.94
23229;BME280;11783;50.350;6.576;2022-09-09T12:33:16;95704.28;;;17.35;96.57
23229;BME280;11783;50.350;6.576;2022-09-09T12:35:44;95708.25;;;17.37;98.51
23229;BME280;11783;50.350;6.576;2022-09-09T12:38:16;95697.69;;;17.27;100.00
23229;BME280;11783;50.350;6.576;2022-09-09T12:40:54;95691.25;;;17.55;100.00
23229;BME280;11783;50.350;6.576;2022-09-09T12:43:22;95703.28;;;17.85;100.00
23229;BME280;11783;50.350;6.576;2022-09-09T12:45:50;95700.19;;;17.92;99.12
23229;BME280;11783;50.350;6.576;2022-09-09T12:48:28;95706.25;;;17.84;93.60
23229;BME280;11783;50.350;6.576;2022-09-09T12:51:00;95697.44;;;17.70;95.84
23229;BME280;11783;50.350;6.576;2022-09-09T12:53:30;95692.56;;;17.31;95.28
23229;BME280;11783;50.350;6.576;2022-09-09T12:55:59;95703.19;;;17.22;99.62
23229;BME280;11783;50.350;6.576;2022-09-09T12:58:26;95709.25;;;17.14;99.76
23229;BME280;11783;50.350;6.576;2022-09-09T13:00:54;95704.53;;;16.59;100.00
23229;BME280;11783;50.350;6.576;2022-09-09T13:03:22;95697.72;;;16.67;100.00
23229;BME280;11783;50.350;6.576;2022-09-09T13:05:49;95703.19;;;16.43;100.00
23229;BME280;11783;50.350;6.576;2022-09-09T13:08:15;95689.88;;;16.52;100.00
23229;BME280;11783;50.350;6.576;2022-09-09T13:10:52;95675.59;;;16.75;100.00
23229;BME280;11783;50.350;6.576;2022-09-09T13:13:28;95679.00;;;16.94;100.00
23229;BME280;11783;50.350;6.576;2022-09-09T13:15:59;95672.84;;;17.35;100.00
23229;BME280;11783;50.350;6.576;2022-09-09T13:18:29;95683.25;;;17.64;100.00
23229;BME280;11783;50.350;6.576;2022-09-09T13:20:55;95675.56;;;17.99;99.08
23229;BME280;11783;50.350;6.576;2022-09-09T13:23:27;95681.50;;;18.09;99.66
23229;BME280;11783;50.350;6.576;2022-09-09T13:25:56;95676.88;;;18.24;97.21
23229;BME280;11783;50.350;6.576;2022-09-09T13:28:28;95677.06;;;18.05;97.99
23229;BME280;11783;50.350;6.576;2022-09-09T13:31:04;95666.66;;;18.12;99.15
23229;BME280;11783;50.350;6.576;2022-09-09T13:33:38;95674.44;;;18.36;97.38
23229;BME280;11783;50.350;6.576;2022-09-09T13:36:11;95670.09;;;18.71;95.04
23229;BME280;11783;50.350;6.576;2022-09-09T13:41:21;95669.66;;;19.09;85.39
23229;BME280;11783;50.350;6.576;2022-09-09T13:43:47;95661.66;;;18.95;85.03
23229;BME280;11783;50.350;6.576;2022-09-09T13:46:40;95662.28;;;18.61;91.70
23229;BME280;11783;50.350;6.576;2022-09-09T13:54:03;95666.66;;;17.76;93.00
23229;BME280;11783;50.350;6.576;2022-09-09T13:56:28;95668.06;;;17.73;100.00
23229;BME280;11783;50.350;6.576;2022-09-09T13:58:54;95657.28;;;17.87;99.88
23229;BME280;11783;50.350;6.576;2022-09-09T14:01:19;95671.34;;;17.70;97.94
23229;BME280;11783;50.350;6.576;2022-09-09T14:03:44;95650.53;;;17.76;97.14
23229;BME280;11783;50.350;6.576;2022-09-09T14:06:10;95657.59;;;17.85;93.26
23229;BME280;11783;50.350;6.576;2022-09-09T14:08:36;95667.44;;;18.12;96.90
23229;BME280;11783;50.350;6.576;2022-09-09T14:11:03;95659.56;;;18.16;94.93
23229;BME280;11783;50.350;6.576;2022-09-09T14:13:29;95679.44;;;18.29;92.03
23229;BME280;11783;50.350;6.576;2022-09-09T14:15:59;95671.84;;;18.08;89.90
23229;BME280;11783;50.350;6.576;2022-09-09T14:18:28;95677.59;;;18.38;94.03
23229;BME280;11783;50.350;6.576;2022-09-09T14:21:00;95670.75;;;18.76;91.03
23229;BME280;11783;50.350;6.576;2022-09-09T14:23:28;95654.91;;;18.97;87.38
23229;BME280;11783;50.350;6.576;2022-09-09T14:25:54;95663.28;;;19.35;83.23
23229;BME280;11783;50.350;6.576;2022-09-09T14:28:19;95661.22;;;19.41;83.60
23229;BME280;11783;50.350;6.576;2022-09-09T14:30:45;95658.31;;;19.29;84.00
23229;BME280;11783;50.350;6.576;2022-09-09T14:33:13;95656.13;;;19.31;84.51
23229;BME280;11783;50.350;6.576;2022-09-09T14:35:38;95660.78;;;19.08;85.00
23229;BME280;11783;50.350;6.576;2022-09-09T14:38:06;95655.81;;;18.93;85.45
23229;BME280;11783;50.350;6.576;2022-09-09T14:40:34;95661.78;;;18.81;86.05
23229;BME280;11783;50.350;6.576;2022-09-09T14:43:00;95662.78;;;18.63;87.35
23229;BME280;11783;50.350;6.576;2022-09-09T14:45:25;95674.03;;;18.42;87.66
23229;BME280;11783;50.350;6.576;2022-09-09T14:47:51;95678.72;;;18.01;87.65
23229;BME280;11783;50.350;6.576;2022-09-09T14:50:18;95678.00;;;17.87;90.81
23229;BME280;11783;50.350;6.576;2022-09-09T14:52:44;95676.63;;;17.34;94.22
23229;BME280;11783;50.350;6.576;2022-09-09T14:55:09;95675.03;;;17.33;97.02
23229;BME280;11783;50.350;6.576;2022-09-09T14:57:35;95675.88;;;16.87;100.00
23229;BME280;11783;50.350;6.576;2022-09-09T15:00:03;95674.00;;;16.74;100.00